createdAt,value
2018-06-21T00:01:23.145Z,99618.00
2018-06-21T00:03:52.525Z,99621.00
2018-06-21T00:06:22.035Z,99610.00
2018-06-21T00:08:51.554Z,99608.00
2018-06-21T00:11:21.531Z,99619.00
2018-06-21T00:13:50.942Z,99629.00
2018-06-21T00:16:20.402Z,99615.00
2018-06-21T00:18:50.536Z,99614.00
2018-06-21T00:21:20.006Z,99601.00
2018-06-21T00:23:49.328Z,99615.00
2018-06-21T00:26:18.716Z,99603.00
2018-06-21T00:28:48.013Z,99606.00
2018-06-21T00:31:17.361Z,99599.00
2018-06-21T00:33:46.712Z,99595.00
2018-06-21T00:36:16.340Z,99597.00
2018-06-21T00:38:45.689Z,99595.00
2018-06-21T00:41:15.163Z,99585.00
2018-06-21T00:43:44.669Z,99591.00
2018-06-21T00:46:14.155Z,99592.00
2018-06-21T00:48:43.560Z,99592.00
2018-06-21T00:51:13.182Z,99594.00
2018-06-21T00:53:42.585Z,99596.00
2018-06-21T00:56:17.346Z,99579.00
2018-06-21T00:58:47.176Z,99581.00
2018-06-21T01:01:17.309Z,99580.00
2018-06-21T01:03:47.640Z,99580.00
2018-06-21T01:06:17.266Z,99580.00
2018-06-21T01:08:46.590Z,99586.00
2018-06-21T01:11:16.668Z,99588.00
2018-06-21T01:13:46.215Z,99585.00
2018-06-21T01:16:15.546Z,99587.00
2018-06-21T01:18:44.965Z,99597.00
2018-06-21T01:21:15.265Z,99595.00
2018-06-21T01:23:44.614Z,99587.00
2018-06-21T01:26:13.974Z,99578.00
2018-06-21T01:28:43.423Z,99572.00
2018-06-21T01:31:12.918Z,99560.00
2018-06-21T01:33:42.237Z,99567.00
2018-06-21T01:36:11.717Z,99557.00
2018-06-21T01:38:41.243Z,99565.00
2018-06-21T01:41:11.412Z,99557.00
2018-06-21T01:43:40.895Z,99556.00
2018-06-21T01:46:10.216Z,99554.00
2018-06-21T01:48:39.521Z,99551.00
2018-06-21T01:51:08.984Z,99549.00
2018-06-21T01:53:38.410Z,99540.00
2018-06-21T01:56:07.933Z,99537.00
2018-06-21T01:58:37.575Z,99548.00
2018-06-21T02:01:06.993Z,99536.00
2018-06-21T02:03:36.420Z,99539.00
2018-06-21T02:06:06.055Z,99525.00
2018-06-21T02:08:35.443Z,99523.00
2018-06-21T02:11:05.390Z,99525.00
2018-06-21T02:13:35.245Z,99521.00
2018-06-21T02:16:04.724Z,99522.00
2018-06-21T02:18:34.053Z,99514.00
2018-06-21T02:21:03.520Z,99518.00
2018-06-21T02:23:32.963Z,99507.00
2018-06-21T02:26:02.418Z,99500.00
2018-06-21T02:28:31.776Z,99502.00
2018-06-21T02:31:01.324Z,99491.00
2018-06-21T02:33:30.770Z,99491.00
2018-06-21T02:36:00.143Z,99491.00
2018-06-21T02:38:29.633Z,99492.00
2018-06-21T02:40:59.082Z,99488.00
2018-06-21T02:43:28.510Z,99501.00
2018-06-21T02:45:58.033Z,99492.00
2018-06-21T02:48:27.530Z,99482.00
2018-06-21T02:50:57.090Z,99488.00
2018-06-21T02:53:26.512Z,99494.00
2018-06-21T02:55:55.902Z,99482.00
2018-06-21T02:58:25.319Z,99484.00
2018-06-21T03:00:55.351Z,99480.00
2018-06-21T03:03:24.720Z,99480.00
2018-06-21T03:05:54.186Z,99476.00
2018-06-21T03:08:23.635Z,99478.00
2018-06-21T03:10:52.972Z,99470.00
2018-06-21T03:13:22.352Z,99472.00
2018-06-21T03:15:51.891Z,99471.00
2018-06-21T03:18:21.373Z,99472.00
2018-06-21T03:20:50.725Z,99464.00
2018-06-21T03:23:20.121Z,99460.00
2018-06-21T03:25:49.466Z,99452.00
2018-06-21T03:28:18.785Z,99453.00
2018-06-21T03:30:48.183Z,99444.00
2018-06-21T03:33:17.604Z,99437.00
2018-06-21T03:35:47.028Z,99444.00
2018-06-21T03:38:16.538Z,99433.00
2018-06-21T03:40:45.867Z,99434.00
2018-06-21T03:43:15.190Z,99441.00
2018-06-21T03:45:44.629Z,99437.00
2018-06-21T03:48:13.996Z,99431.00
2018-06-21T03:50:43.064Z,99433.00
2018-06-21T03:53:12.494Z,99427.00
2018-06-21T03:55:41.837Z,99434.00
2018-06-21T03:58:11.252Z,99430.00
2018-06-21T04:00:40.725Z,99425.00
2018-06-21T04:03:10.128Z,99423.00
2018-06-21T04:05:39.517Z,99417.00
2018-06-21T04:08:09.003Z,99410.00
2018-06-21T04:10:38.293Z,99410.00
2018-06-21T04:13:07.641Z,99409.00
2018-06-21T04:15:37.046Z,99400.00
2018-06-21T04:18:06.383Z,99405.00
2018-06-21T04:20:36.258Z,99404.00
2018-06-21T04:23:06.691Z,99399.00
2018-06-21T04:25:36.305Z,99399.00
2018-06-21T04:28:05.828Z,99398.00
2018-06-21T04:30:35.196Z,99397.00
2018-06-21T04:33:04.589Z,99393.00
2018-06-21T04:35:34.004Z,99392.00
2018-06-21T04:38:04.272Z,99390.00
2018-06-21T04:40:33.682Z,99393.00
2018-06-21T04:43:02.726Z,99392.00
2018-06-21T04:45:32.035Z,99390.00
2018-06-21T04:48:02.501Z,99398.00
2018-06-21T04:50:31.694Z,99391.00
2018-06-21T04:53:01.114Z,99387.00
2018-06-21T04:55:30.817Z,99386.00
2018-06-21T04:58:00.300Z,99386.00
2018-06-21T05:00:29.860Z,99386.00
2018-06-21T05:02:59.492Z,99381.00
2018-06-21T05:05:28.974Z,99380.00
2018-06-21T05:07:58.405Z,99378.00
2018-06-21T05:10:28.424Z,99377.00
2018-06-21T05:12:57.760Z,99374.00
2018-06-21T05:15:27.069Z,99375.00
2018-06-21T05:17:57.120Z,99374.00
2018-06-21T05:20:26.572Z,99367.00
2018-06-21T05:22:56.953Z,99352.00
2018-06-21T05:25:26.262Z,99360.00
2018-06-21T05:27:55.295Z,99358.00
2018-06-21T05:30:26.160Z,99360.00
2018-06-21T05:32:55.563Z,99363.00
2018-06-21T05:35:24.890Z,99350.00
2018-06-21T05:37:54.258Z,99353.00
2018-06-21T05:40:34.993Z,99347.00
2018-06-21T05:43:04.986Z,99338.00
2018-06-21T05:45:34.944Z,99333.00
2018-06-21T05:48:04.625Z,99336.00
2018-06-21T05:50:34.835Z,99335.00
2018-06-21T05:53:04.186Z,99330.00
2018-06-21T05:55:34.563Z,99328.00
2018-06-21T05:58:03.875Z,99329.00
2018-06-21T06:00:33.304Z,99322.00
2018-06-21T06:03:02.347Z,99326.00
2018-06-21T06:05:31.788Z,99314.00
2018-06-21T06:08:01.155Z,99308.00
2018-06-21T06:10:32.057Z,99298.00
2018-06-21T06:13:01.390Z,99294.00
2018-06-21T06:15:30.683Z,99292.00
2018-06-21T06:18:00.983Z,99286.00
2018-06-21T06:20:30.313Z,99286.00
2018-06-21T06:22:59.504Z,99269.00
2018-06-21T06:25:28.949Z,99276.00
2018-06-21T06:27:58.372Z,99263.00
2018-06-21T06:30:27.744Z,99265.00
2018-06-21T06:32:57.177Z,99259.00
2018-06-21T06:35:28.975Z,99258.00
2018-06-21T06:37:59.300Z,99267.00
2018-06-21T06:40:28.959Z,99260.00
2018-06-21T06:42:58.296Z,99258.00
2018-06-21T06:45:27.697Z,99246.00
2018-06-21T06:47:57.641Z,99236.00
2018-06-21T06:50:27.262Z,99233.00
2018-06-21T06:52:56.636Z,99239.00
2018-06-21T06:55:26.078Z,99234.00
2018-06-21T06:57:55.588Z,99237.00
2018-06-21T07:00:24.684Z,99231.00
2018-06-21T07:02:53.785Z,99231.00
2018-06-21T07:05:23.231Z,99226.00
2018-06-21T07:07:52.621Z,99224.00
2018-06-21T07:10:21.962Z,99217.00
2018-06-21T07:12:51.288Z,99213.00
2018-06-21T07:15:20.704Z,99203.00
2018-06-21T07:17:50.101Z,99200.00
2018-06-21T07:20:19.454Z,99199.00
2018-06-21T07:22:48.920Z,99186.00
2018-06-21T07:25:18.223Z,99196.00
2018-06-21T07:27:47.721Z,99188.00
2018-06-21T07:30:17.222Z,99180.00
2018-06-21T07:32:46.548Z,99170.00
2018-06-21T07:35:15.886Z,99165.00
2018-06-21T07:37:45.837Z,99166.00
2018-06-21T07:40:15.224Z,99163.00
2018-06-21T07:42:44.641Z,99158.00
2018-06-21T07:45:14.221Z,99157.00
2018-06-21T07:47:43.666Z,99151.00
2018-06-21T07:50:14.022Z,99151.00
2018-06-21T07:52:43.352Z,99146.00
2018-06-21T07:55:13.189Z,99140.00
2018-06-21T07:57:42.614Z,99131.00
2018-06-21T08:00:12.056Z,99127.00
2018-06-21T08:02:41.477Z,99125.00
2018-06-21T08:05:10.962Z,99125.00
2018-06-21T08:07:40.265Z,99122.00
2018-06-21T08:10:09.746Z,99105.00
2018-06-21T08:12:39.257Z,99112.00
2018-06-21T08:15:08.703Z,99105.00
2018-06-21T08:17:38.178Z,99104.00
2018-06-21T08:20:07.642Z,99099.00
2018-06-21T08:22:37.130Z,99092.00
2018-06-21T08:25:06.681Z,99095.00
2018-06-21T08:27:36.285Z,99093.00
2018-06-21T08:30:05.864Z,99100.00
2018-06-21T08:32:35.276Z,99093.00
2018-06-21T08:35:04.771Z,99084.00
2018-06-21T08:37:34.217Z,99080.00
2018-06-21T08:40:03.793Z,99076.00
2018-06-21T08:42:33.185Z,99073.00
2018-06-21T08:45:02.619Z,99070.00
2018-06-21T08:47:34.966Z,99077.00
2018-06-21T08:50:04.397Z,99071.00
2018-06-21T08:52:34.309Z,99074.00
2018-06-21T08:55:03.704Z,99076.00
2018-06-21T08:57:33.181Z,99069.00
2018-06-21T09:00:02.700Z,99068.00
2018-06-21T09:02:32.357Z,99062.00
2018-06-21T09:05:01.764Z,99065.00
2018-06-21T09:07:31.117Z,99063.00
2018-06-21T09:10:00.462Z,99057.00
2018-06-21T09:12:33.816Z,99052.00
2018-06-21T09:15:03.276Z,99056.00
2018-06-21T09:17:32.709Z,99044.00
2018-06-21T09:20:02.397Z,99050.00
2018-06-21T09:22:33.228Z,99051.00
2018-06-21T09:25:03.253Z,99049.00
2018-06-21T09:27:32.757Z,99040.00
2018-06-21T09:30:02.251Z,99047.00
2018-06-21T09:32:31.777Z,99041.00
2018-06-21T09:35:01.241Z,99042.00
2018-06-21T09:37:35.942Z,99052.00
2018-06-21T09:40:10.733Z,99041.00
2018-06-21T09:42:45.269Z,99042.00
2018-06-21T09:45:18.893Z,99037.00
2018-06-21T09:47:53.403Z,99039.00
2018-06-21T09:50:22.890Z,99031.00
2018-06-21T09:52:52.242Z,99023.00
2018-06-21T09:55:21.821Z,99033.00
2018-06-21T09:57:51.303Z,99016.00
2018-06-21T10:00:25.864Z,99026.00
2018-06-21T10:02:55.559Z,99030.00
2018-06-21T10:05:24.959Z,99024.00
2018-06-21T10:07:54.338Z,99014.00
2018-06-21T10:10:23.805Z,99019.00
2018-06-21T10:12:53.292Z,99018.00
2018-06-21T10:15:22.629Z,99015.00
2018-06-21T10:17:52.209Z,99019.00
2018-06-21T10:20:21.543Z,99002.00
2018-06-21T10:22:50.572Z,99002.00
2018-06-21T10:25:19.917Z,99011.00
2018-06-21T10:27:49.425Z,99016.00
2018-06-21T10:30:18.945Z,99007.00
2018-06-21T10:32:48.324Z,99000.00
2018-06-21T10:35:17.689Z,99005.00
2018-06-21T10:37:47.231Z,99014.00
2018-06-21T10:40:16.760Z,99021.00
2018-06-21T10:42:46.279Z,99014.00
2018-06-21T10:45:15.610Z,99000.00
2018-06-21T10:47:44.732Z,99009.00
2018-06-21T10:50:14.318Z,99018.00
2018-06-21T10:52:43.914Z,99016.00
2018-06-21T10:55:13.390Z,99011.00
2018-06-21T10:57:42.810Z,99021.00
2018-06-21T11:00:12.295Z,99028.00
2018-06-21T11:02:41.834Z,99020.00
2018-06-21T11:05:11.238Z,99028.00
2018-06-21T11:07:40.725Z,98986.00
2018-06-21T11:10:10.033Z,99026.00
2018-06-21T11:12:39.542Z,99023.00
2018-06-21T11:15:08.964Z,99029.00
2018-06-21T11:17:38.328Z,99024.00
2018-06-21T11:20:08.009Z,99036.00
2018-06-21T11:22:37.488Z,99037.00
2018-06-21T11:25:07.256Z,99040.00
2018-06-21T11:27:36.788Z,99038.00
2018-06-21T11:30:06.375Z,99037.00
2018-06-21T11:32:35.937Z,99034.00
2018-06-21T11:35:05.409Z,99039.00
2018-06-21T11:37:34.865Z,99032.00
2018-06-21T11:40:04.391Z,99035.00
2018-06-21T11:42:33.732Z,99040.00
2018-06-21T11:45:03.183Z,99038.00
2018-06-21T11:47:32.701Z,99050.00
2018-06-21T11:50:02.186Z,99053.00
2018-06-21T11:52:31.741Z,99034.00
2018-06-21T11:55:01.468Z,99043.00
2018-06-21T11:57:30.629Z,99048.00
2018-06-21T12:00:00.075Z,99069.00
2018-06-21T12:02:29.398Z,99073.00
2018-06-21T12:04:58.837Z,99116.00
2018-06-21T12:07:28.354Z,99142.00
2018-06-21T12:09:57.789Z,99175.00
2018-06-21T12:12:27.177Z,99201.00
2018-06-21T12:14:56.682Z,99199.00
2018-06-21T12:17:26.123Z,99230.00
2018-06-21T12:19:55.914Z,99228.00
2018-06-21T12:22:25.290Z,99255.00
2018-06-21T12:24:54.733Z,99267.00
2018-06-21T12:27:24.204Z,99278.00
2018-06-21T12:29:53.531Z,99289.00
2018-06-21T12:32:22.963Z,99282.00
2018-06-21T12:34:52.053Z,99293.00
2018-06-21T12:37:21.546Z,99292.00
2018-06-21T12:39:50.883Z,99308.00
2018-06-21T12:42:20.253Z,99318.00
2018-06-21T12:44:49.712Z,99325.00
2018-06-21T12:47:19.259Z,99345.00
2018-06-21T12:49:48.860Z,99339.00
2018-06-21T12:52:18.205Z,99358.00
2018-06-21T12:54:47.318Z,99371.00
2018-06-21T12:57:16.522Z,99378.00
2018-06-21T12:59:45.605Z,99374.00
2018-06-21T13:02:14.987Z,99380.00
2018-06-21T13:04:44.416Z,99392.00
2018-06-21T13:07:13.828Z,99401.00
2018-06-21T13:10:00.048Z,99400.00
2018-06-21T13:12:47.633Z,99406.00
2018-06-21T13:15:17.779Z,99422.00
2018-06-21T13:17:47.288Z,99434.00
2018-06-21T13:20:16.874Z,99440.00
2018-06-21T13:22:46.290Z,99464.00
2018-06-21T13:25:15.744Z,99457.00
2018-06-21T13:27:45.104Z,99462.00
2018-06-21T13:30:14.597Z,99472.00
2018-06-21T13:32:44.074Z,99470.00
2018-06-21T13:35:13.463Z,99471.00
2018-06-21T13:37:43.678Z,99467.00
2018-06-21T13:40:13.156Z,99478.00
2018-06-21T13:42:42.236Z,99487.00
2018-06-21T13:45:11.957Z,99492.00
2018-06-21T13:47:41.385Z,99504.00
2018-06-21T13:50:10.763Z,99495.00
2018-06-21T13:52:40.728Z,99503.00
2018-06-21T13:55:10.112Z,99514.00
2018-06-21T13:57:39.338Z,99515.00
2018-06-21T14:00:08.861Z,99508.00
2018-06-21T14:02:38.246Z,99511.00
2018-06-21T14:05:07.945Z,99509.00
2018-06-21T14:07:37.213Z,99507.00
2018-06-21T14:10:06.516Z,99510.00
2018-06-21T14:12:35.883Z,99508.00
2018-06-21T14:15:05.541Z,99509.00
2018-06-21T14:17:34.924Z,99527.00
2018-06-21T14:20:04.376Z,99516.00
2018-06-21T14:22:34.005Z,99531.00
2018-06-21T14:25:03.949Z,99537.00
2018-06-21T14:27:33.349Z,99550.00
2018-06-21T14:30:03.351Z,99535.00
2018-06-21T14:32:32.819Z,99544.00
2018-06-21T14:35:02.209Z,99541.00
2018-06-21T14:37:32.184Z,99524.00
2018-06-21T14:40:02.533Z,99549.00
2018-06-21T14:42:31.997Z,99554.00
2018-06-21T14:45:01.412Z,99557.00
2018-06-21T14:47:30.510Z,99555.00
2018-06-21T14:49:59.996Z,99550.00
2018-06-21T14:52:29.504Z,99543.00
2018-06-21T14:54:59.024Z,99541.00
2018-06-21T14:57:29.406Z,99551.00
2018-06-21T14:59:58.872Z,99550.00
2018-06-21T15:02:28.258Z,99554.00
2018-06-21T15:04:57.797Z,99554.00
2018-06-21T15:07:27.135Z,99571.00
2018-06-21T15:09:56.625Z,99572.00
2018-06-21T15:12:26.082Z,99573.00
2018-06-21T15:14:55.456Z,99566.00
2018-06-21T15:17:25.041Z,99568.00
2018-06-21T15:19:54.535Z,99555.00
2018-06-21T15:22:23.721Z,99551.00
2018-06-21T15:24:53.385Z,99543.00
2018-06-21T15:27:22.838Z,99544.00
2018-06-21T15:29:52.382Z,99550.00
2018-06-21T15:32:21.766Z,99563.00
2018-06-21T15:34:51.292Z,99554.00
2018-06-21T15:37:21.890Z,99556.00
2018-06-21T15:39:52.056Z,99563.00
2018-06-21T15:42:21.476Z,99562.00
2018-06-21T15:44:50.840Z,99557.00
2018-06-21T15:47:20.369Z,99566.00
2018-06-21T15:49:49.602Z,99564.00
2018-06-21T15:52:19.053Z,99574.00
2018-06-21T15:54:48.534Z,99581.00
2018-06-21T15:57:18.136Z,99581.00
2018-06-21T15:59:47.716Z,99583.00
2018-06-21T16:02:17.206Z,99584.00
2018-06-21T16:04:46.741Z,99583.00
2018-06-21T16:07:15.852Z,99586.00
2018-06-21T16:09:45.460Z,99589.00
2018-06-21T16:12:15.154Z,99580.00
2018-06-21T16:14:44.650Z,99580.00
2018-06-21T16:17:14.162Z,99587.00
2018-06-21T16:19:43.595Z,99575.00
2018-06-21T16:22:13.006Z,99577.00
2018-06-21T16:24:42.594Z,99578.00
2018-06-21T16:27:12.522Z,99573.00
2018-06-21T16:29:42.040Z,99573.00
2018-06-21T16:32:11.534Z,99570.00
2018-06-21T16:34:41.123Z,99581.00
2018-06-21T16:37:10.744Z,99577.00
2018-06-21T16:39:40.297Z,99579.00
2018-06-21T16:42:09.593Z,99575.00
2018-06-21T16:44:39.141Z,99579.00
2018-06-21T16:47:08.584Z,99574.00
2018-06-21T16:49:38.209Z,99568.00
2018-06-21T16:52:07.718Z,99573.00
2018-06-21T16:54:36.899Z,99580.00
2018-06-21T16:57:06.408Z,99578.00
2018-06-21T16:59:35.845Z,99594.00
2018-06-21T17:02:05.470Z,99586.00
2018-06-21T17:04:34.857Z,99601.00
2018-06-21T17:07:04.361Z,99588.00
2018-06-21T17:09:34.113Z,99589.00
2018-06-21T17:12:03.470Z,99595.00
2018-06-21T17:14:32.774Z,99593.00
2018-06-21T17:17:02.356Z,99604.00
2018-06-21T17:19:32.262Z,99601.00
2018-06-21T17:22:01.772Z,99598.00
2018-06-21T17:24:31.236Z,99604.00
2018-06-21T17:27:01.181Z,99616.00
2018-06-21T17:29:30.555Z,99611.00
2018-06-21T17:31:59.936Z,99618.00
2018-06-21T17:34:29.392Z,99619.00
2018-06-21T17:36:58.898Z,99620.00
2018-06-21T17:39:28.393Z,99633.00
2018-06-21T17:41:57.689Z,99631.00
2018-06-21T17:44:27.146Z,99635.00
2018-06-21T17:46:57.577Z,99640.00
2018-06-21T17:49:27.952Z,99648.00
2018-06-21T17:51:57.544Z,99641.00
2018-06-21T17:54:27.130Z,99653.00
2018-06-21T17:56:56.656Z,99658.00
2018-06-21T17:59:26.197Z,99661.00
2018-06-21T18:01:55.541Z,99657.00
2018-06-21T18:04:25.095Z,99661.00
2018-06-21T18:06:54.276Z,99662.00
2018-06-21T18:09:24.148Z,99672.00
2018-06-21T18:11:53.634Z,99677.00
2018-06-21T18:14:23.024Z,99686.00
2018-06-21T18:16:52.573Z,99678.00
2018-06-21T18:19:21.917Z,99687.00
2018-06-21T18:21:51.362Z,99690.00
2018-06-21T18:24:20.943Z,99692.00
2018-06-21T18:26:50.467Z,99706.00
2018-06-21T18:29:19.602Z,99713.00
2018-06-21T18:31:49.076Z,99710.00
2018-06-21T18:34:18.577Z,99723.00
2018-06-21T18:36:47.969Z,99722.00
2018-06-21T18:39:17.553Z,99727.00
2018-06-21T18:41:47.408Z,99738.00
2018-06-21T18:44:17.753Z,99733.00
2018-06-21T18:46:47.382Z,99736.00
2018-06-21T18:49:16.886Z,99739.00
2018-06-21T18:51:46.441Z,99746.00
2018-06-21T18:54:15.846Z,99745.00
2018-06-21T18:56:45.254Z,99754.00
2018-06-21T18:59:14.776Z,99763.00
2018-06-21T19:01:44.292Z,99763.00
2018-06-21T19:04:13.701Z,99761.00
2018-06-21T19:06:48.371Z,99775.00
2018-06-21T19:09:22.908Z,99771.00
2018-06-21T19:12:00.552Z,99784.00
2018-06-21T19:14:30.610Z,99782.00
2018-06-21T19:17:00.174Z,99779.00
2018-06-21T19:19:29.621Z,99783.00
2018-06-21T19:21:59.223Z,99783.00
2018-06-21T19:24:29.045Z,99775.00
2018-06-21T19:26:58.493Z,99777.00
2018-06-21T19:29:27.931Z,99788.00
2018-06-21T19:31:57.377Z,99793.00
2018-06-21T19:34:26.659Z,99813.00
2018-06-21T19:36:56.258Z,99805.00
2018-06-21T19:39:25.389Z,99821.00
2018-06-21T19:41:54.947Z,99813.00
2018-06-21T19:44:24.324Z,99809.00
2018-06-21T19:46:53.875Z,99818.00
2018-06-21T19:49:23.344Z,99828.00
2018-06-21T19:51:52.750Z,99825.00
2018-06-21T19:54:22.139Z,99828.00
2018-06-21T19:56:51.593Z,99834.00
2018-06-21T19:59:20.985Z,99846.00
2018-06-21T20:01:50.434Z,99841.00
2018-06-21T20:04:19.931Z,99850.00
2018-06-21T20:06:49.480Z,99848.00
2018-06-21T20:09:18.886Z,99862.00
2018-06-21T20:11:48.364Z,99858.00
2018-06-21T20:14:17.841Z,99860.00
2018-06-21T20:16:47.344Z,99862.00
2018-06-21T20:19:18.040Z,99861.00
2018-06-21T20:21:47.499Z,99869.00
2018-06-21T20:24:17.026Z,99867.00
2018-06-21T20:26:47.383Z,99877.00
2018-06-21T20:29:20.737Z,99887.00
2018-06-21T20:31:50.146Z,99883.00
2018-06-21T20:34:19.831Z,99887.00
2018-06-21T20:36:49.138Z,99892.00
2018-06-21T20:39:19.467Z,99899.00
2018-06-21T20:41:48.971Z,99894.00
2018-06-21T20:44:18.364Z,99897.00
2018-06-21T20:46:47.694Z,99913.00
2018-06-21T20:49:17.740Z,99906.00
2018-06-21T20:51:47.179Z,99898.00
2018-06-21T20:54:16.661Z,99900.00
2018-06-21T20:56:46.239Z,99901.00
2018-06-21T20:59:15.762Z,99913.00
2018-06-21T21:01:45.192Z,99906.00
2018-06-21T21:04:14.566Z,99906.00
2018-06-21T21:06:44.114Z,99904.00
2018-06-21T21:09:13.305Z,99903.00
2018-06-21T21:11:42.716Z,99912.00
2018-06-21T21:14:12.076Z,99916.00
2018-06-21T21:16:41.466Z,99914.00
2018-06-21T21:19:10.901Z,99917.00
2018-06-21T21:21:40.933Z,99915.00
2018-06-21T21:24:10.343Z,99923.00
2018-06-21T21:26:39.826Z,99918.00
2018-06-21T21:29:09.891Z,99914.00
2018-06-21T21:31:39.310Z,99915.00
2018-06-21T21:34:08.819Z,99921.00
2018-06-21T21:36:37.896Z,99924.00
2018-06-21T21:39:09.854Z,99921.00
2018-06-21T21:41:39.236Z,99921.00
2018-06-21T21:44:08.537Z,99924.00
2018-06-21T21:46:38.079Z,99928.00
2018-06-21T21:49:07.461Z,99922.00
2018-06-21T21:51:36.893Z,99931.00
2018-06-21T21:54:06.364Z,99936.00
2018-06-21T21:56:35.895Z,99932.00
2018-06-21T21:59:06.250Z,99919.00
2018-06-21T22:01:35.747Z,99927.00
2018-06-21T22:04:05.254Z,99925.00
2018-06-21T22:06:35.260Z,99932.00
2018-06-21T22:09:06.533Z,99928.00
2018-06-21T22:11:36.373Z,99920.00
2018-06-21T22:14:06.374Z,99930.00
2018-06-21T22:16:36.893Z,99931.00
2018-06-21T22:19:06.245Z,99926.00
2018-06-21T22:21:35.656Z,99925.00
2018-06-21T22:24:05.142Z,99924.00
2018-06-21T22:26:34.604Z,99918.00
2018-06-21T22:29:04.047Z,99919.00
2018-06-21T22:31:33.410Z,99923.00
2018-06-21T22:34:03.416Z,99911.00
2018-06-21T22:36:32.840Z,99916.00
2018-06-21T22:39:02.310Z,99918.00
2018-06-21T22:41:31.789Z,99917.00
2018-06-21T22:44:01.206Z,99920.00
2018-06-21T22:46:30.609Z,99916.00
2018-06-21T22:48:59.943Z,99912.00
2018-06-21T22:51:29.492Z,99914.00
2018-06-21T22:53:58.912Z,99912.00
2018-06-21T22:56:28.284Z,99911.00
2018-06-21T22:58:58.174Z,99913.00
2018-06-21T23:01:27.604Z,99917.00
2018-06-21T23:03:57.147Z,99919.00
2018-06-21T23:06:26.536Z,99919.00
2018-06-21T23:08:55.921Z,99916.00
2018-06-21T23:11:25.358Z,99915.00
2018-06-21T23:13:54.849Z,99911.00
2018-06-21T23:16:25.769Z,99914.00
2018-06-21T23:19:11.799Z,99909.00
2018-06-21T23:21:41.221Z,99905.00
2018-06-21T23:24:10.600Z,99902.00
2018-06-21T23:26:40.072Z,99905.00
2018-06-21T23:29:09.430Z,99913.00
2018-06-21T23:31:38.763Z,99908.00
2018-06-21T23:34:08.129Z,99900.00
2018-06-21T23:36:37.498Z,99906.00
2018-06-21T23:39:10.199Z,99909.00
2018-06-21T23:41:42.806Z,99906.00
2018-06-21T23:44:13.435Z,99902.00
2018-06-21T23:46:43.617Z,99903.00
2018-06-21T23:49:14.224Z,99909.00
2018-06-21T23:51:43.683Z,99912.00
2018-06-21T23:54:14.161Z,99912.00
2018-06-21T23:56:44.381Z,99910.00
2018-06-21T23:59:13.788Z,99918.00
